Hovedside
METAR-TAF:

METAR-TAF

Lufthavner :

Amílcar Cabral internasjonale lufthavn

Sal, Kapp Verde

breddegrad: 16-44N, lengdegrad: 022-57W, høyde over havet: 54 m

Gjeldene værobservasjon

Denne rapporten ble laget for 32 minutter siden, klokken 13:00 UTC
Vind 13 kt fra Nordøst
Temperatur 30°C
Luftfuktighet 55%
Trykk 1014 hPa
Sikt 10 km eller mer
Få skyer i en høyde av 1300 ft

METAR: GVAC 181300Z 05013KT 9999 FEW013 30/20 Q1014 NOSIG

Tid: 12:32 (13:32 UTC)

Varsel

Denne rapporten ble laget for 2 timer og 32 minutter siden, klokken 11:00 UTC
Varsel gyldig fra 18. klokken 12 UTC til 19. klokken 18 UTC
Vind 15 kt fra Nordøst
Sikt 10 km eller mer
Spredte skyer i en høyde av 1300 ft

TAF: GVAC 181100Z 1812/1918 04015KT 9999 SCT013

Værobservasjoner og værvarsel for over 4000 flyplasser (METAR- og TAF-rapporter).

Tilgjengelige stasjoner er representert av de røde og gule prikkene på kartet.

Hold musepekeren over prikken for å se navnet på stasjonen.

Klikk så for å se værobservasjoner og -varsler.

For å forandre kartet kan du klikke på den grønne knappen med svart kryss for å zoome inn, på den grønne knappen med strek for å zoome ut, eller på de grønne pilene for å se tilstøtende kart.


METAR-TAF: